Time;durP1;ratioP1;P1;durP2;ratioP2;P2;SDS_P1;SDS_P2;PMS_P1;PMS_P2;Temp;Humidity;BMP_temperature;BMP_pressure;BME280_temperature;BME280_humidity;BME280_pressure;Samples;Min_cycle;Max_cycle;Signal;HPM_P1;HPM_P2
2022/04/15 00:01:29;;;;;;;15.00;6.00;;;;;;;7.02;100.00;102087.88;4955698;28;20070;-75
2022/04/15 00:03:56;;;;;;;16.00;6.20;;;;;;;7.05;100.00;102084.25;4959068;28;20045;-76
2022/04/15 00:06:24;;;;;;;11.68;5.88;;;;;;;7.06;100.00;102091.13;4957141;28;20524;-76
2022/04/15 00:08:50;;;;;;;9.57;5.78;;;;;;;7.01;100.00;102081.81;4944062;28;20042;-75
2022/04/15 00:11:16;;;;;;;17.77;6.20;;;;;;;7.04;100.00;102098.22;4961243;28;20022;-75
2022/04/15 00:13:42;;;;;;;10.88;5.80;;;;;;;7.01;100.00;102094.88;4943042;28;20042;-77
2022/04/15 00:16:09;;;;;;;10.68;5.90;;;;;;;7.02;100.00;102088.69;4947701;28;20563;-75
2022/04/15 00:18:35;;;;;;;13.15;6.07;;;;;;;7.09;100.00;102097.00;4964200;28;20040;-76
2022/04/15 00:21:02;;;;;;;13.30;6.70;;;;;;;7.01;100.00;102086.19;4948495;28;20035;-74
2022/04/15 00:23:28;;;;;;;16.13;6.03;;;;;;;7.15;100.00;102095.81;4946074;28;20027;-76
2022/04/15 00:25:54;;;;;;;8.05;5.88;;;;;;;7.15;100.00;102093.19;4953176;28;20137;-75
2022/04/15 00:28:22;;;;;;;14.05;6.03;;;;;;;7.15;100.00;102099.25;4973640;28;20109;-76
2022/04/15 00:30:48;;;;;;;17.10;6.38;;;;;;;7.18;100.00;102099.09;4931059;28;20082;-76
2022/04/15 00:33:14;;;;;;;9.82;5.90;;;;;;;7.34;100.00;102096.38;4951055;28;20046;-76
2022/04/15 00:35:40;;;;;;;10.63;6.05;;;;;;;7.28;100.00;102082.88;4952485;28;20042;-76
2022/04/15 00:38:06;;;;;;;11.50;5.85;;;;;;;7.28;100.00;102091.53;4982313;28;20546;-77
2022/04/15 00:40:32;;;;;;;12.98;5.60;;;;;;;7.33;100.00;102088.66;4946347;28;20039;-76
2022/04/15 00:42:57;;;;;;;13.30;5.88;;;;;;;7.29;100.00;102085.41;4949391;28;20624;-76
2022/04/15 00:45:23;;;;;;;13.95;5.47;;;;;;;7.25;100.00;102085.66;4967010;28;20736;-76
2022/04/15 00:47:57;;;;;;;11.68;5.00;;;;;;;7.24;100.00;102102.25;4965322;28;20043;-77
2022/04/15 00:50:28;;;;;;;9.68;5.20;;;;;;;7.22;100.00;102091.91;4957653;28;20042;-76
2022/04/15 00:52:57;;;;;;;8.15;5.63;;;;;;;7.13;100.00;102095.06;4970891;28;20456;-76
2022/04/15 00:55:23;;;;;;;10.80;5.60;;;;;;;7.25;100.00;102101.31;4955458;28;20042;-77
2022/04/15 00:57:56;;;;;;;11.95;5.53;;;;;;;7.29;100.00;102093.22;4958208;28;20063;-76
2022/04/15 01:00:22;;;;;;;12.27;6.03;;;;;;;7.27;100.00;102104.69;4966740;28;21338;-77
2022/04/15 01:02:52;;;;;;;9.10;5.82;;;;;;;7.13;100.00;102102.91;4948795;28;20429;-76
2022/04/15 01:05:19;;;;;;;10.30;5.43;;;;;;;7.16;100.00;102095.72;4950235;28;20050;-77
2022/04/15 01:07:55;;;;;;;9.40;5.07;;;;;;;7.13;100.00;102103.72;4962965;28;20055;-76
2022/04/15 01:10:22;;;;;;;10.85;5.40;;;;;;;7.18;100.00;102106.09;4952359;28;20037;-76
2022/04/15 01:12:53;;;;;;;11.43;5.55;;;;;;;7.18;100.00;102101.69;4946243;28;20042;-76
2022/04/15 01:15:20;;;;;;;10.95;5.95;;;;;;;7.16;100.00;102108.78;4977101;28;20026;-77
2022/04/15 01:17:46;;;;;;;9.27;5.38;;;;;;;7.09;100.00;102097.00;4950407;28;20043;-76
2022/04/15 01:20:12;;;;;;;12.60;5.72;;;;;;;7.11;100.00;102107.38;4951671;28;20037;-76
2022/04/15 01:22:42;;;;;;;14.70;6.13;;;;;;;6.97;100.00;102106.41;4962595;28;20127;-76
2022/04/15 01:25:10;;;;;;;11.60;5.20;;;;;;;7.07;100.00;102111.09;4945775;28;20105;-76
2022/04/15 01:27:38;;;;;;;8.10;5.00;;;;;;;7.09;100.00;102109.22;4946436;28;20480;-75
2022/04/15 01:30:11;;;;;;;11.73;5.28;;;;;;;7.01;100.00;102114.91;4958743;28;20692;-76
2022/04/15 01:32:36;;;;;;;12.73;5.00;;;;;;;7.06;100.00;102106.78;4968997;28;20027;-75
2022/04/15 01:35:06;;;;;;;8.40;4.75;;;;;;;7.12;100.00;102112.50;4962231;28;20089;-76
2022/04/15 01:37:32;;;;;;;13.75;5.15;;;;;;;7.06;100.00;102114.63;4946952;29;20588;-76
2022/04/15 01:39:58;;;;;;;9.10;5.07;;;;;;;7.14;100.00;102115.00;4948275;28;20068;-76
2022/04/15 01:42:25;;;;;;;13.40;5.70;;;;;;;7.10;100.00;102116.97;4965523;28;20035;-76
2022/04/15 01:44:50;;;;;;;12.85;5.07;;;;;;;7.08;100.00;102115.38;4958782;28;20039;-75
2022/04/15 01:47:16;;;;;;;9.73;5.50;;;;;;;7.01;100.00;102117.50;4969385;28;20033;-76
2022/04/15 01:49:42;;;;;;;12.00;5.40;;;;;;;7.08;100.00;102123.19;4951440;28;20035;-76
2022/04/15 01:52:08;;;;;;;11.57;5.38;;;;;;;7.09;100.00;102115.28;4967235;28;20180;-76
2022/04/15 01:54:34;;;;;;;11.82;6.55;;;;;;;6.98;100.00;102121.13;4964306;28;20737;-76
2022/04/15 01:56:59;;;;;;;18.48;6.43;;;;;;;7.20;100.00;102120.69;4967553;28;20052;-76
2022/04/15 01:59:25;;;;;;;15.40;6.30;;;;;;;7.09;100.00;102117.06;4963768;28;20211;-76
2022/04/15 02:01:54;;;;;;;16.10;7.18;;;;;;;7.06;100.00;102118.06;4950621;28;20075;-76
2022/04/15 02:04:25;;;;;;;17.90;9.20;;;;;;;7.13;100.00;102119.38;4953673;28;20144;-77
2022/04/15 02:06:51;;;;;;;34.88;21.67;;;;;;;7.04;100.00;102113.88;4945660;28;20058;-77
2022/04/15 02:09:16;;;;;;;50.75;35.00;;;;;;;6.98;100.00;102117.69;4942510;28;20590;-75
2022/04/15 02:11:43;;;;;;;60.40;40.42;;;;;;;7.09;100.00;102119.66;4954816;28;20027;-75
2022/04/15 02:14:09;;;;;;;60.50;42.78;;;;;;;7.12;100.00;102117.72;4980799;28;20848;-77
2022/04/15 02:16:35;;;;;;;49.67;35.28;;;;;;;7.06;100.00;102120.66;4947660;28;20046;-76
2022/04/15 02:19:00;;;;;;;63.28;41.50;;;;;;;7.04;100.00;102117.31;4958938;28;20034;-77
2022/04/15 02:21:26;;;;;;;61.10;40.80;;;;;;;6.99;100.00;102117.59;4945658;28;20049;-77
2022/04/15 02:23:52;;;;;;;48.70;32.60;;;;;;;6.97;100.00;102127.28;4965081;28;20105;-77
2022/04/15 02:26:17;;;;;;;59.47;39.00;;;;;;;7.11;100.00;102123.03;4964964;28;20039;-76
2022/04/15 02:28:43;;;;;;;51.47;30.70;;;;;;;7.09;100.00;102115.28;4947219;28;20658;-76
2022/04/15 02:31:09;;;;;;;33.85;20.80;;;;;;;7.05;100.00;102119.00;4966065;28;20473;-75
2022/04/15 02:33:34;;;;;;;23.80;13.73;;;;;;;7.07;100.00;102124.13;4966134;28;20041;-77
2022/04/15 02:36:00;;;;;;;19.67;11.63;;;;;;;6.93;100.00;102117.97;4948689;28;20492;-75
2022/04/15 02:38:26;;;;;;;15.20;8.55;;;;;;;6.97;100.00;102118.63;4964490;28;20565;-77
2022/04/15 02:40:51;;;;;;;17.48;9.45;;;;;;;6.90;100.00;102115.50;4969491;28;20042;-75
2022/04/15 02:43:17;;;;;;;18.08;9.98;;;;;;;7.04;100.00;102127.75;4981771;28;20039;-77
2022/04/15 02:45:43;;;;;;;20.05;9.65;;;;;;;6.98;100.00;102128.94;4964576;28;20066;-75
2022/04/15 02:48:10;;;;;;;22.23;10.00;;;;;;;6.88;100.00;102133.03;4950211;28;20122;-76
2022/04/15 02:50:36;;;;;;;18.40;9.77;;;;;;;6.95;100.00;102133.50;4964138;28;20121;-75
2022/04/15 02:53:02;;;;;;;19.58;9.68;;;;;;;6.93;100.00;102127.53;4950902;28;20133;-76
2022/04/15 02:55:27;;;;;;;27.42;11.50;;;;;;;6.87;100.00;102130.50;4927236;29;20035;-75
2022/04/15 02:57:53;;;;;;;18.67;9.40;;;;;;;6.86;100.00;102128.84;4950180;28;20583;-76
2022/04/15 03:00:20;;;;;;;18.55;10.38;;;;;;;6.93;100.00;102138.81;4947344;28;20432;-77
2022/04/15 03:02:45;;;;;;;21.40;10.95;;;;;;;7.00;100.00;102131.47;4968078;28;20038;-77
2022/04/15 03:05:11;;;;;;;22.40;10.27;;;;;;;6.92;100.00;102131.09;4932515;28;20042;-75
2022/04/15 03:07:37;;;;;;;19.52;10.27;;;;;;;6.90;100.00;102141.59;4963966;28;20133;-75
2022/04/15 03:10:05;;;;;;;16.25;9.13;;;;;;;6.97;100.00;102148.16;4967330;28;20571;-75
2022/04/15 03:12:34;;;;;;;19.27;9.65;;;;;;;6.81;100.00;102140.34;4952694;28;20030;-77
2022/04/15 03:15:01;;;;;;;19.08;10.30;;;;;;;6.86;100.00;102147.94;4949964;28;20093;-77
2022/04/15 03:17:26;;;;;;;18.60;9.60;;;;;;;6.92;100.00;102139.75;4972554;28;20168;-76
2022/04/15 03:19:52;;;;;;;15.65;8.65;;;;;;;6.85;100.00;102159.28;4966515;28;20981;-75
2022/04/15 03:22:18;;;;;;;18.55;7.90;;;;;;;6.88;100.00;102156.50;4974604;28;20521;-75
2022/04/15 03:24:44;;;;;;;14.73;8.20;;;;;;;6.95;100.00;102155.22;4944968;28;20053;-77
2022/04/15 03:27:12;;;;;;;10.55;6.82;;;;;;;6.86;100.00;102153.16;4941936;28;20030;-76
2022/04/15 03:29:37;;;;;;;10.93;6.28;;;;;;;6.87;100.00;102146.97;4942837;28;20121;-77
2022/04/15 03:32:03;;;;;;;10.98;6.22;;;;;;;6.85;100.00;102155.84;4959794;28;20089;-76
2022/04/15 03:34:29;;;;;;;11.38;6.53;;;;;;;6.78;100.00;102147.50;4950298;28;20043;-76
2022/04/15 03:36:54;;;;;;;11.52;7.70;;;;;;;6.87;100.00;102157.41;4972117;28;20054;-76
2022/04/15 03:39:20;;;;;;;14.13;9.80;;;;;;;6.83;100.00;102150.69;4937542;28;20911;-76
2022/04/15 03:41:45;;;;;;;15.40;9.57;;;;;;;6.79;100.00;102151.81;4950456;28;20062;-76
2022/04/15 03:44:11;;;;;;;14.05;10.13;;;;;;;6.90;100.00;102146.81;4944536;28;20038;-77
2022/04/15 03:46:38;;;;;;;17.05;9.98;;;;;;;6.79;100.00;102150.03;4957105;28;20034;-76
2022/04/15 03:49:04;;;;;;;15.73;9.95;;;;;;;6.95;100.00;102150.00;4966728;28;20066;-75
2022/04/15 03:51:30;;;;;;;15.38;9.55;;;;;;;6.89;100.00;102163.38;4950363;28;20109;-75
2022/04/15 03:53:56;;;;;;;14.70;8.63;;;;;;;6.87;100.00;102153.97;4960043;28;20488;-75
2022/04/15 03:56:21;;;;;;;13.27;8.82;;;;;;;6.80;100.00;102159.56;4965360;28;20061;-76
2022/04/15 03:58:47;;;;;;;12.90;9.10;;;;;;;6.90;100.00;102151.19;4962697;28;20047;-76
2022/04/15 04:01:13;;;;;;;15.30;8.43;;;;;;;6.90;100.00;102149.44;4956827;28;20031;-76
2022/04/15 04:03:38;;;;;;;15.25;8.65;;;;;;;6.86;100.00;102166.19;4945710;28;20042;-76
2022/04/15 04:06:04;;;;;;;12.88;9.35;;;;;;;6.80;100.00;102154.34;4938270;28;20045;-76
2022/04/15 04:08:30;;;;;;;16.27;10.30;;;;;;;6.78;100.00;102155.31;4960352;28;20043;-75
2022/04/15 04:10:55;;;;;;;16.73;10.70;;;;;;;6.79;100.00;102159.63;4950124;28;20042;-76
2022/04/15 04:13:22;;;;;;;16.83;11.05;;;;;;;6.76;100.00;102158.03;4960626;28;20034;-75
2022/04/15 04:15:48;;;;;;;19.90;11.48;;;;;;;6.75;100.00;102166.78;4942744;28;20090;-76
2022/04/15 04:18:14;;;;;;;19.35;13.30;;;;;;;6.79;100.00;102170.06;4950356;28;20035;-75
2022/04/15 04:20:41;;;;;;;25.00;14.48;;;;;;;6.79;100.00;102178.72;4948332;28;20039;-77
2022/04/15 04:23:07;;;;;;;24.65;14.88;;;;;;;6.69;100.00;102179.34;4938072;28;20023;-76
2022/04/15 04:25:32;;;;;;;22.67;15.93;;;;;;;6.72;100.00;102173.94;4963052;28;20039;-75
2022/04/15 04:27:58;;;;;;;24.55;15.68;;;;;;;6.90;100.00;102188.56;4963684;28;20525;-76
2022/04/15 04:30:24;;;;;;;24.85;16.30;;;;;;;6.76;100.00;102184.13;4949776;28;20042;-76
2022/04/15 04:32:49;;;;;;;26.80;16.55;;;;;;;6.81;100.00;102187.28;4946974;28;20041;-77
2022/04/15 04:35:17;;;;;;;27.90;18.10;;;;;;;6.74;100.00;102185.97;4947677;28;20173;-76
2022/04/15 04:37:44;;;;;;;29.25;19.40;;;;;;;6.76;100.00;102185.88;4959586;28;20027;-76
2022/04/15 04:40:10;;;;;;;29.88;20.95;;;;;;;6.78;100.00;102189.22;4948899;28;20039;-76
2022/04/15 04:42:37;;;;;;;31.55;21.10;;;;;;;6.78;100.00;102184.88;4955824;28;20057;-77
2022/04/15 04:45:03;;;;;;;35.75;21.88;;;;;;;6.92;100.00;102196.28;4966638;28;20124;-76
2022/04/15 04:47:29;;;;;;;36.15;22.08;;;;;;;6.88;100.00;102200.84;4931313;28;20043;-75
2022/04/15 04:49:55;;;;;;;33.60;22.33;;;;;;;7.04;100.00;102194.75;4939357;28;20381;-76
2022/04/15 04:52:23;;;;;;;42.28;24.50;;;;;;;6.83;100.00;102190.66;4955349;28;20046;-76
2022/04/15 04:54:49;;;;;;;35.60;22.80;;;;;;;6.86;100.00;102194.88;4932901;28;20635;-76
2022/04/15 04:57:15;;;;;;;39.10;23.98;;;;;;;6.94;100.00;102199.66;4982888;28;20046;-75
2022/04/15 04:59:41;;;;;;;42.80;24.45;;;;;;;6.94;100.00;102205.69;4962286;28;20401;-75
2022/04/15 05:02:10;;;;;;;47.00;26.17;;;;;;;6.90;100.00;102209.41;4976402;28;20070;-77
2022/04/15 05:04:36;;;;;;;42.00;24.80;;;;;;;7.06;100.00;102214.59;4936474;28;20163;-76
2022/04/15 05:07:03;;;;;;;39.28;25.08;;;;;;;7.02;100.00;102207.88;4963416;28;20145;-76
2022/04/15 05:09:29;;;;;;;38.25;24.25;;;;;;;7.15;100.00;102208.03;4983862;28;20039;-76
2022/04/15 05:11:55;;;;;;;43.45;25.05;;;;;;;7.14;100.00;102203.72;4947424;28;20045;-77
2022/04/15 05:14:21;;;;;;;38.70;24.30;;;;;;;7.32;100.00;102217.47;4934056;28;20042;-76
2022/04/15 05:16:46;;;;;;;40.97;25.33;;;;;;;7.26;100.00;102216.06;4956745;28;20072;-76
2022/04/15 05:19:13;;;;;;;35.90;24.05;;;;;;;7.25;100.00;102226.59;4946078;28;20101;-76
2022/04/15 05:21:39;;;;;;;54.70;24.92;;;;;;;7.22;100.00;102220.63;4966646;28;20035;-76
2022/04/15 05:24:07;;;;;;;34.08;23.23;;;;;;;7.27;100.00;102225.59;4951159;28;20039;-77
2022/04/15 05:26:33;;;;;;;36.75;23.85;;;;;;;7.15;100.00;102224.50;4960625;28;20039;-77
2022/04/15 05:28:59;;;;;;;37.45;23.00;;;;;;;7.20;100.00;102222.47;4948266;28;20043;-75
2022/04/15 05:31:25;;;;;;;34.83;20.95;;;;;;;7.27;100.00;102238.66;4930990;28;20027;-76
2022/04/15 05:33:51;;;;;;;30.42;20.17;;;;;;;7.24;100.00;102236.19;4946363;28;20049;-76
2022/04/15 05:36:16;;;;;;;36.78;21.55;;;;;;;7.28;100.00;102249.91;4936353;28;20054;-75
2022/04/15 05:38:42;;;;;;;39.47;20.75;;;;;;;7.33;100.00;102253.13;4984026;28;20428;-76
2022/04/15 05:41:08;;;;;;;31.33;18.35;;;;;;;7.36;100.00;102250.31;4963244;28;20376;-77
2022/04/15 05:43:33;;;;;;;34.25;19.35;;;;;;;7.34;100.00;102252.16;4935817;28;20115;-74
2022/04/15 05:45:59;;;;;;;33.83;20.17;;;;;;;7.29;100.00;102262.88;4965510;28;20031;-76
2022/04/15 05:48:24;;;;;;;38.35;20.30;;;;;;;7.30;100.00;102261.94;4951975;28;20043;-76
2022/04/15 05:50:51;;;;;;;36.40;20.15;;;;;;;7.30;100.00;102263.72;4944614;28;20049;-76
2022/04/15 05:53:17;;;;;;;37.53;20.35;;;;;;;7.31;100.00;102266.25;4957112;28;20073;-75
2022/04/15 05:55:42;;;;;;;42.53;21.92;;;;;;;7.26;100.00;102254.38;4953840;28;20034;-75
2022/04/15 05:58:10;;;;;;;40.03;21.00;;;;;;;7.19;100.00;102266.94;4960836;28;20143;-77
2022/04/15 06:00:42;;;;;;;38.70;21.75;;;;;;;7.39;100.00;102265.81;4968094;28;20827;-76
2022/04/15 06:03:08;;;;;;;39.08;21.08;;;;;;;7.38;100.00;102264.97;4964704;28;20190;-75
2022/04/15 06:05:35;;;;;;;42.40;22.45;;;;;;;7.31;100.00;102265.38;4980411;28;20424;-75
2022/04/15 06:08:00;;;;;;;45.70;21.83;;;;;;;7.46;100.00;102282.81;4961225;28;20034;-77
2022/04/15 06:10:26;;;;;;;45.38;23.10;;;;;;;7.44;100.00;102281.19;4951680;28;20161;-76
2022/04/15 06:12:57;;;;;;;40.95;21.98;;;;;;;7.40;100.00;102277.91;4934904;28;20026;-76
2022/04/15 06:15:24;;;;;;;49.10;24.67;;;;;;;7.45;100.00;102290.72;4948579;28;20039;-76
2022/04/15 06:17:50;;;;;;;45.78;23.23;;;;;;;7.43;100.00;102298.63;4951151;28;20047;-75
2022/04/15 06:20:19;;;;;;;52.08;26.02;;;;;;;7.39;100.00;102297.97;4945781;28;20031;-76
2022/04/15 06:22:45;;;;;;;50.92;22.77;;;;;;;7.43;100.00;102303.03;4933977;28;20043;-76
2022/04/15 06:25:11;;;;;;;50.45;24.98;;;;;;;7.47;100.00;102309.75;4980768;28;20084;-76
2022/04/15 06:27:37;;;;;;;51.53;25.50;;;;;;;7.53;100.00;102306.78;4943504;28;20045;-76
2022/04/15 06:30:04;;;;;;;52.58;25.83;;;;;;;7.49;100.00;102311.31;4948339;28;20030;-75
2022/04/15 06:32:29;;;;;;;46.40;26.30;;;;;;;7.57;100.00;102308.28;4949387;29;20688;-76
2022/04/15 06:34:55;;;;;;;61.90;28.58;;;;;;;7.61;100.00;102315.03;4980010;28;20034;-76
2022/04/15 06:37:21;;;;;;;53.38;27.25;;;;;;;7.64;100.00;102314.00;4934765;28;20049;-75
2022/04/15 06:39:50;;;;;;;49.35;24.25;;;;;;;7.53;100.00;102305.00;4967196;28;20042;-75
2022/04/15 06:42:23;;;;;;;47.58;23.95;;;;;;;7.62;100.00;102318.47;4959538;28;21580;-76
2022/04/15 06:44:49;;;;;;;52.38;23.95;;;;;;;7.64;100.00;102329.66;4960684;28;20061;-75
2022/04/15 06:47:16;;;;;;;50.97;24.48;;;;;;;7.63;100.00;102325.34;4950422;28;20034;-78
2022/04/15 06:49:46;;;;;;;52.10;25.20;;;;;;;7.64;100.00;102343.56;4948885;28;20467;-76
2022/04/15 06:52:12;;;;;;;52.33;25.65;;;;;;;7.65;100.00;102339.16;4948500;28;20035;-77
2022/04/15 06:54:38;;;;;;;47.67;23.45;;;;;;;7.63;100.00;102341.03;4949640;28;20469;-75
2022/04/15 06:57:04;;;;;;;52.92;25.75;;;;;;;7.67;100.00;102345.16;4927653;28;20492;-74
2022/04/15 06:59:30;;;;;;;55.63;24.63;;;;;;;7.60;100.00;102339.44;4965762;28;20062;-75
2022/04/15 07:01:56;;;;;;;53.50;24.13;;;;;;;7.59;100.00;102350.81;4978280;28;20101;-76
2022/04/15 07:04:23;;;;;;;50.25;25.67;;;;;;;7.58;100.00;102349.97;4966085;28;20078;-75
2022/04/15 07:06:49;;;;;;;56.72;25.27;;;;;;;7.51;100.00;102356.47;4962380;28;20404;-75
2022/04/15 07:09:14;;;;;;;56.03;24.33;;;;;;;7.62;100.00;102358.47;4964529;28;20035;-77
2022/04/15 07:11:40;;;;;;;48.47;23.40;;;;;;;7.64;100.00;102345.34;4929554;28;20035;-76
2022/04/15 07:14:06;;;;;;;52.97;22.75;;;;;;;7.76;100.00;102353.31;4966348;28;20037;-75
2022/04/15 07:16:34;;;;;;;46.95;20.52;;;;;;;8.14;100.00;102352.00;4947843;28;20042;-76
2022/04/15 07:19:04;;;;;;;48.22;21.70;;;;;;;8.16;100.00;102334.44;4943606;28;20074;-76
2022/04/15 07:21:38;;;;;;;38.83;19.60;;;;;;;8.13;100.00;102348.53;4929738;28;20134;-78
2022/04/15 07:24:04;;;;;;;41.47;20.38;;;;;;;8.33;100.00;102355.19;4949416;28;20042;-76
2022/04/15 07:26:30;;;;;;;46.35;20.48;;;;;;;8.22;100.00;102367.22;4974486;28;20035;-76
2022/04/15 07:28:56;;;;;;;40.42;19.95;;;;;;;8.26;100.00;102361.72;4964878;28;20053;-74
2022/04/15 07:31:23;;;;;;;45.30;21.77;;;;;;;8.23;100.00;102361.03;4951440;28;20039;-76
2022/04/15 07:33:49;;;;;;;52.38;22.10;;;;;;;8.18;100.00;102361.34;4944626;28;20038;-74
2022/04/15 07:39:00;;;;;;;43.60;20.58;;;;;;;7.96;100.00;102375.66;4965052;28;20070;-76
2022/04/15 07:41:25;;;;;;;38.78;19.95;;;;;;;7.95;100.00;102383.59;4947506;28;20858;-76
2022/04/15 07:43:51;;;;;;;44.97;19.88;;;;;;;7.90;100.00;102394.31;4963873;28;20039;-76
2022/04/15 07:46:17;;;;;;;37.35;18.45;;;;;;;7.80;100.00;102391.38;4964698;28;20043;-76
2022/04/15 07:48:43;;;;;;;36.50;19.17;;;;;;;7.82;100.00;102398.28;4953662;28;20089;-76
2022/04/15 07:51:09;;;;;;;38.90;18.73;;;;;;;7.77;100.00;102401.16;4931861;28;20042;-75
2022/04/15 07:53:35;;;;;;;44.13;20.25;;;;;;;7.82;100.00;102399.13;4961407;28;20075;-75
2022/04/15 07:56:01;;;;;;;43.45;21.48;;;;;;;7.68;100.00;102401.69;4949379;28;20042;-77
2022/04/15 07:58:27;;;;;;;45.53;21.63;;;;;;;7.73;100.00;102399.66;4957598;28;20074;-76
2022/04/15 08:00:53;;;;;;;41.72;21.55;;;;;;;7.69;100.00;102404.22;4974372;28;20113;-76
2022/04/15 08:03:20;;;;;;;45.30;22.85;;;;;;;7.70;100.00;102412.88;4946227;28;20038;-77
2022/04/15 08:05:47;;;;;;;49.25;21.52;;;;;;;7.70;100.00;102411.09;4954745;28;20055;-76
2022/04/15 08:08:13;;;;;;;44.40;21.80;;;;;;;7.68;100.00;102406.91;4957559;28;20034;-76
2022/04/15 08:10:38;;;;;;;48.63;22.80;;;;;;;7.87;100.00;102414.53;4959692;28;20510;-78
2022/04/15 08:13:04;;;;;;;49.95;23.10;;;;;;;7.78;100.00;102423.75;4957327;28;20027;-76
2022/04/15 08:15:31;;;;;;;43.55;21.85;;;;;;;7.77;100.00;102414.22;4956537;28;20062;-75
2022/04/15 08:17:56;;;;;;;41.72;20.40;;;;;;;7.76;100.00;102423.84;4962099;28;20039;-76
2022/04/15 08:20:22;;;;;;;46.78;21.88;;;;;;;8.03;100.00;102412.72;4964405;28;20042;-76
2022/04/15 08:22:48;;;;;;;35.45;18.20;;;;;;;8.21;100.00;102423.03;4948644;28;20525;-76
2022/04/15 08:25:14;;;;;;;32.33;17.65;;;;;;;8.23;100.00;102419.41;4982567;28;20030;-76
2022/04/15 08:27:39;;;;;;;30.05;17.05;;;;;;;8.38;100.00;102430.72;4945817;28;20043;-76
2022/04/15 08:30:05;;;;;;;29.92;16.90;;;;;;;8.25;100.00;102428.00;4953188;28;20515;-75
2022/04/15 08:32:34;;;;;;;40.90;17.63;;;;;;;8.28;100.00;102442.66;4931804;28;20031;-76
2022/04/15 08:35:01;;;;;;;36.28;17.05;;;;;;;8.28;100.00;102433.03;4944471;28;20101;-77
2022/04/15 08:37:27;;;;;;;30.02;16.95;;;;;;;8.21;100.00;102438.72;4953433;28;20093;-76
2022/04/15 08:39:53;;;;;;;28.98;15.55;;;;;;;8.24;100.00;102443.78;4977805;28;20035;-75
2022/04/15 08:42:20;;;;;;;31.15;16.33;;;;;;;8.41;100.00;102450.63;4957481;28;20118;-75
2022/04/15 08:44:51;;;;;;;30.17;15.35;;;;;;;8.43;100.00;102454.03;4958872;28;20141;-76
2022/04/15 08:47:17;;;;;;;28.77;15.95;;;;;;;8.39;100.00;102454.16;4948900;28;20078;-76
2022/04/15 08:49:43;;;;;;;30.48;17.10;;;;;;;8.39;100.00;102458.56;4950895;28;20031;-77
2022/04/15 08:52:10;;;;;;;33.28;17.00;;;;;;;8.30;100.00;102453.88;4933717;28;20062;-76
2022/04/15 08:54:36;;;;;;;30.38;17.10;;;;;;;8.29;100.00;102457.44;4947309;28;20046;-77
2022/04/15 08:57:02;;;;;;;26.98;16.48;;;;;;;8.46;100.00;102470.38;4951147;28;20559;-75
2022/04/15 08:59:28;;;;;;;29.98;17.13;;;;;;;8.58;100.00;102471.41;4956138;28;20484;-77
2022/04/15 09:01:53;;;;;;;27.73;16.73;;;;;;;8.62;100.00;102474.69;4960849;28;20071;-76
2022/04/15 09:04:19;;;;;;;28.35;16.65;;;;;;;8.67;100.00;102480.50;4975400;28;20035;-76
2022/04/15 09:06:45;;;;;;;30.60;16.73;;;;;;;8.47;100.00;102476.44;4951134;28;20047;-76
2022/04/15 09:09:14;;;;;;;25.02;15.63;;;;;;;8.36;100.00;102487.50;4968781;28;20125;-76
2022/04/15 09:11:41;;;;;;;31.63;17.33;;;;;;;8.43;100.00;102494.09;4967933;28;20065;-74
2022/04/15 09:14:10;;;;;;;27.67;15.90;;;;;;;8.51;100.00;102489.28;4950216;28;20038;-76
2022/04/15 09:16:45;;;;;;;31.73;17.90;;;;;;;8.44;100.00;102493.16;4978551;28;20051;-76
2022/04/15 09:19:12;;;;;;;28.67;16.50;;;;;;;8.41;100.00;102509.00;4951059;28;20042;-77
2022/04/15 09:21:40;;;;;;;25.85;17.02;;;;;;;8.39;100.00;102508.25;4953430;28;20043;-77
2022/04/15 09:24:07;;;;;;;28.00;16.70;;;;;;;8.41;100.00;102509.00;4952808;28;20089;-74
2022/04/15 09:26:35;;;;;;;32.55;17.60;;;;;;;8.45;100.00;102501.84;4952779;28;20030;-76
2022/04/15 09:29:01;;;;;;;27.80;16.88;;;;;;;8.59;100.00;102504.50;4967572;28;20035;-76
2022/04/15 09:31:27;;;;;;;27.48;16.00;;;;;;;8.62;100.00;102509.53;4976706;28;20035;-76
2022/04/15 09:33:57;;;;;;;28.20;16.65;;;;;;;8.69;100.00;102512.66;4962287;28;20164;-75
2022/04/15 09:36:26;;;;;;;26.73;16.40;;;;;;;8.61;100.00;102512.25;4950927;28;20038;-77
2022/04/15 09:39:12;;;;;;;31.63;17.88;;;;;;;8.51;100.00;102520.66;4967574;28;20043;-76
2022/04/15 09:41:40;;;;;;;31.10;17.88;;;;;;;8.57;100.00;102515.06;4931961;28;20804;-75
2022/04/15 09:44:10;;;;;;;29.27;17.10;;;;;;;8.69;100.00;102525.72;4962501;28;20089;-77
2022/04/15 09:46:35;;;;;;;29.90;16.95;;;;;;;8.62;100.00;102520.00;4934272;29;20137;-76
2022/04/15 09:49:08;;;;;;;25.50;15.73;;;;;;;8.55;100.00;102530.00;4950242;28;20122;-76
2022/04/15 09:51:40;;;;;;;28.10;16.98;;;;;;;8.61;100.00;102533.16;4947564;28;20035;-77
2022/04/15 09:54:09;;;;;;;29.85;17.35;;;;;;;8.79;100.00;102537.31;4944316;28;20049;-76
2022/04/15 09:56:39;;;;;;;28.95;16.80;;;;;;;8.86;100.00;102538.66;4952396;28;20126;-76
2022/04/15 09:59:09;;;;;;;28.10;17.50;;;;;;;8.86;100.00;102536.03;4952425;28;20045;-77
2022/04/15 10:01:40;;;;;;;30.40;17.90;;;;;;;8.88;100.00;102531.53;4961232;28;20049;-77
2022/04/15 10:04:08;;;;;;;29.70;16.80;;;;;;;8.98;100.00;102536.22;4951816;28;20043;-75
2022/04/15 10:06:34;;;;;;;26.63;17.20;;;;;;;9.10;100.00;102548.59;4952525;28;20038;-74
2022/04/15 10:09:02;;;;;;;29.25;17.23;;;;;;;9.05;100.00;102538.38;4950411;28;20126;-76
2022/04/15 10:11:32;;;;;;;29.48;17.80;;;;;;;9.16;100.00;102546.44;4963338;28;20034;-75
2022/04/15 10:13:58;;;;;;;31.08;17.35;;;;;;;9.27;100.00;102560.66;4932665;28;20031;-76
2022/04/15 10:16:24;;;;;;;29.95;17.85;;;;;;;9.10;100.00;102559.06;4967069;28;20045;-76
2022/04/15 10:18:52;;;;;;;30.23;18.02;;;;;;;9.13;100.00;102561.47;4943859;28;20154;-77
2022/04/15 10:21:18;;;;;;;32.15;18.83;;;;;;;9.05;100.00;102558.50;4936205;28;20050;-77
2022/04/15 10:23:44;;;;;;;29.35;18.00;;;;;;;9.11;100.00;102556.31;4946729;28;20050;-76
2022/04/15 10:26:10;;;;;;;29.48;17.73;;;;;;;9.26;100.00;102557.19;4950360;28;20035;-77
2022/04/15 10:28:41;;;;;;;28.85;17.15;;;;;;;9.15;100.00;102565.72;4956734;28;20042;-76
2022/04/15 10:31:12;;;;;;;29.92;17.20;;;;;;;9.06;100.00;102571.50;4965772;28;20155;-77
2022/04/15 10:33:39;;;;;;;27.58;17.38;;;;;;;9.15;100.00;102563.09;4947819;28;20035;-74
2022/04/15 10:36:12;;;;;;;27.02;17.88;;;;;;;9.11;100.00;102568.59;4966031;28;20121;-75
2022/04/15 10:39:03;;;;;;;28.92;18.15;;;;;;;9.13;100.00;102561.47;4950002;28;20389;-77
2022/04/15 10:41:49;;;;;;;28.95;17.70;;;;;;;9.06;100.00;102565.38;4954916;28;20134;-75
2022/04/15 10:44:36;;;;;;;31.13;18.77;;;;;;;8.98;100.00;102567.63;4965461;28;20078;-76
2022/04/15 10:47:17;;;;;;;31.85;18.70;;;;;;;8.93;100.00;102576.59;4971644;28;20069;-75
2022/04/15 10:50:04;;;;;;;40.00;19.40;;;;;;;8.86;100.00;102577.91;4949216;28;20076;-76
2022/04/15 10:52:30;;;;;;;32.03;18.80;;;;;;;8.96;100.00;102571.16;4934680;28;20034;-76
2022/04/15 10:55:06;;;;;;;29.65;17.70;;;;;;;9.03;100.00;102578.69;4951694;28;20189;-76
2022/04/15 10:57:33;;;;;;;29.45;17.77;;;;;;;9.16;100.00;102580.47;4957405;28;20035;-76
2022/04/15 11:02:45;;;;;;;29.52;17.92;;;;;;;9.19;100.00;102576.81;4962560;28;20097;-76
2022/04/15 11:05:31;;;;;;;29.80;17.85;;;;;;;9.13;100.00;102574.56;4950648;28;20093;-76
2022/04/15 11:08:03;;;;;;;30.85;17.35;;;;;;;9.07;100.00;102575.78;4960832;28;20043;-76
2022/04/15 11:10:45;;;;;;;31.00;17.87;;;;;;;9.08;100.00;102579.22;4962092;28;20140;-77
2022/04/15 11:13:24;;;;;;;29.90;17.85;;;;;;;9.00;100.00;102584.09;4945057;28;20281;-75
2022/04/15 11:15:57;;;;;;;28.20;17.48;;;;;;;9.10;100.00;102582.63;4948649;28;20043;-76
2022/04/15 11:18:24;;;;;;;31.42;18.15;;;;;;;9.03;100.00;102591.78;4954294;28;20046;-76